createdAt,value
2023-03-19T00:06:04.315Z,4.70
2023-03-19T00:20:04.356Z,4.00
2023-03-19T00:34:04.368Z,4.20
2023-03-19T00:48:04.378Z,4.20
2023-03-19T01:02:04.386Z,4.05
2023-03-19T01:16:04.581Z,3.45
2023-03-19T01:30:04.411Z,3.45
2023-03-19T01:44:04.413Z,3.80
2023-03-19T01:58:04.442Z,3.90
2023-03-19T02:12:04.494Z,3.10
2023-03-19T02:26:04.479Z,3.30
2023-03-19T02:40:04.535Z,3.30
2023-03-19T02:54:04.538Z,3.50
2023-03-19T03:08:04.545Z,3.90
2023-03-19T03:22:04.598Z,3.20
2023-03-19T03:36:04.588Z,2.90
2023-03-19T03:50:04.747Z,3.20
2023-03-19T04:04:04.747Z,3.00
2023-03-19T04:18:04.754Z,3.10
2023-03-19T04:32:04.631Z,2.80
2023-03-19T04:46:04.746Z,3.30
2023-03-19T05:00:04.705Z,2.70
2023-03-19T05:14:04.803Z,3.10
2023-03-19T05:29:04.814Z,2.90
2023-03-19T05:44:04.848Z,3.50
2023-03-19T05:59:04.865Z,5.60
2023-03-19T06:14:04.779Z,6.10
2023-03-19T06:29:04.798Z,5.70
2023-03-19T06:44:04.919Z,4.05
2023-03-19T06:59:04.931Z,5.30
2023-03-19T07:14:04.822Z,4.00
2023-03-19T07:29:04.861Z,4.20
2023-03-19T07:44:04.848Z,3.00
2023-03-19T07:59:04.892Z,3.90
2023-03-19T08:14:04.926Z,3.50
2023-03-19T08:29:04.931Z,2.60
2023-03-19T08:44:04.942Z,3.10
2023-03-19T08:59:04.950Z,3.00
2023-03-19T09:14:04.964Z,3.35
2023-03-19T09:29:04.983Z,3.60
2023-03-19T09:44:04.946Z,7.90
2023-03-19T09:59:04.999Z,20.80
2023-03-19T10:14:04.995Z,19.70
2023-03-19T10:29:05.018Z,16.20
2023-03-19T10:44:05.055Z,17.10
2023-03-19T10:59:05.060Z,16.65
2023-03-19T11:14:05.073Z,14.80
2023-03-19T11:29:05.113Z,12.80
2023-03-19T11:44:05.130Z,13.90
2023-03-19T11:59:05.124Z,14.10
2023-03-19T12:14:05.188Z,12.50
2023-03-19T12:29:05.179Z,9.60
2023-03-19T12:44:05.203Z,9.75
2023-03-19T12:59:05.239Z,10.55
2023-03-19T13:14:05.264Z,9.00
2023-03-19T13:29:05.281Z,8.70
2023-03-19T13:44:05.275Z,8.30
2023-03-19T13:59:05.292Z,8.20
2023-03-19T14:14:05.295Z,6.80
2023-03-19T14:29:05.415Z,6.30
2023-03-19T14:44:05.428Z,5.80
2023-03-19T14:59:05.327Z,5.90
2023-03-19T15:14:05.341Z,4.40
2023-03-19T15:29:05.784Z,4.50
2023-03-19T15:44:05.470Z,4.70
2023-03-19T15:59:05.523Z,3.80
2023-03-19T16:14:05.500Z,4.50
2023-03-19T16:29:05.554Z,3.60
2023-03-19T16:44:05.605Z,4.00
2023-03-19T16:59:05.462Z,3.00
2023-03-19T17:15:05.475Z,2.80
2023-03-19T17:30:05.509Z,3.90
2023-03-19T17:45:05.483Z,3.40
2023-03-19T18:00:05.490Z,2.90
2023-03-19T18:14:05.516Z,2.55
2023-03-19T18:28:05.507Z,2.85
2023-03-19T18:42:05.557Z,2.20
2023-03-19T18:56:05.575Z,2.80
2023-03-19T19:10:05.704Z,2.70
2023-03-19T19:24:05.596Z,2.80
2023-03-19T19:38:05.619Z,2.10
2023-03-19T19:52:05.632Z,2.30
2023-03-19T20:06:05.646Z,2.50
2023-03-19T20:20:05.636Z,2.50
2023-03-19T20:34:05.656Z,6.30
2023-03-19T20:48:05.689Z,5.30
2023-03-19T21:02:05.726Z,6.60
2023-03-19T21:16:05.691Z,6.10
2023-03-19T21:30:05.700Z,5.70
2023-03-19T21:44:05.734Z,5.30
2023-03-19T21:58:05.733Z,4.70
2023-03-19T22:12:05.730Z,5.30
2023-03-19T22:26:05.760Z,3.40
2023-03-19T22:40:05.776Z,5.60
2023-03-19T22:54:05.784Z,4.35
2023-03-19T23:08:06.424Z,4.25
2023-03-19T23:22:05.835Z,4.05
2023-03-19T23:36:05.864Z,5.10
2023-03-19T23:50:05.826Z,2.90
